createdAt,value
2022-09-30T00:01:56.963Z,99.90
2022-09-30T00:04:26.191Z,99.90
2022-09-30T00:06:55.873Z,99.90
2022-09-30T00:09:26.350Z,99.90
2022-09-30T00:11:54.982Z,99.90
2022-09-30T00:14:25.023Z,99.90
2022-09-30T00:16:54.479Z,99.90
2022-09-30T00:19:23.516Z,99.90
2022-09-30T00:21:52.110Z,99.90
2022-09-30T00:24:20.820Z,99.90
2022-09-30T00:26:51.271Z,99.90
2022-09-30T00:29:19.685Z,99.90
2022-09-30T00:31:48.744Z,99.90
2022-09-30T00:34:18.591Z,99.90
2022-09-30T00:36:50.110Z,99.90
2022-09-30T00:39:21.670Z,99.90
2022-09-30T00:41:57.406Z,99.90
2022-09-30T00:44:50.863Z,99.90
2022-09-30T00:47:26.248Z,99.90
2022-09-30T00:49:54.821Z,99.90
2022-09-30T00:52:23.175Z,99.90
2022-09-30T00:54:52.038Z,99.90
2022-09-30T00:57:21.755Z,99.90
2022-09-30T00:59:53.240Z,99.90
2022-09-30T01:02:23.613Z,99.90
2022-09-30T01:04:51.993Z,99.90
2022-09-30T01:07:22.371Z,99.90
2022-09-30T01:09:51.301Z,99.90
2022-09-30T01:12:25.174Z,99.90
2022-09-30T01:14:56.346Z,99.90
2022-09-30T01:17:35.933Z,99.90
2022-09-30T01:20:45.282Z,99.90
2022-09-30T01:23:36.280Z,99.90
2022-09-30T01:26:35.773Z,99.90
2022-09-30T01:29:42.498Z,99.90
2022-09-30T01:32:25.945Z,99.90
2022-09-30T01:35:00.401Z,99.90
2022-09-30T01:37:41.620Z,99.90
2022-09-30T01:40:22.871Z,99.90
2022-09-30T01:42:57.600Z,99.90
2022-09-30T01:45:34.306Z,99.90
2022-09-30T01:48:07.664Z,99.90
2022-09-30T01:50:44.434Z,99.90
2022-09-30T01:53:20.532Z,99.90
2022-09-30T01:55:52.188Z,99.90
2022-09-30T01:58:27.076Z,99.90
2022-09-30T02:01:01.839Z,99.90
2022-09-30T02:03:37.606Z,99.90
2022-09-30T02:06:10.001Z,99.90
2022-09-30T02:08:43.760Z,99.90
2022-09-30T02:11:17.856Z,99.90
2022-09-30T02:13:51.781Z,99.90
2022-09-30T02:16:26.335Z,99.90
2022-09-30T02:19:00.907Z,99.90
2022-09-30T02:21:33.713Z,99.90
2022-09-30T02:24:06.713Z,99.90
2022-09-30T02:26:39.936Z,99.90
2022-09-30T02:29:13.986Z,99.90
2022-09-30T02:31:45.303Z,99.90
2022-09-30T02:34:20.996Z,99.90
2022-09-30T02:36:54.149Z,99.90
2022-09-30T02:39:24.881Z,99.90
2022-09-30T02:41:56.680Z,99.90
2022-09-30T02:44:25.847Z,99.90
2022-09-30T02:47:01.913Z,99.90
2022-09-30T02:49:39.354Z,99.90
2022-09-30T02:52:17.210Z,99.90
2022-09-30T02:54:56.446Z,99.90
2022-09-30T02:57:37.901Z,99.90
2022-09-30T03:00:12.663Z,99.90
2022-09-30T03:02:41.956Z,99.90
2022-09-30T03:05:12.849Z,99.90
2022-09-30T03:07:43.252Z,99.90
2022-09-30T03:10:16.940Z,99.90
2022-09-30T03:13:05.025Z,99.90
2022-09-30T03:15:47.228Z,99.90
2022-09-30T03:18:38.962Z,99.90
2022-09-30T03:21:22.726Z,99.90
2022-09-30T03:24:07.952Z,99.90
2022-09-30T03:26:50.729Z,99.90
2022-09-30T03:29:25.532Z,99.90
2022-09-30T03:32:03.291Z,99.90
2022-09-30T03:34:37.915Z,99.90
2022-09-30T03:37:17.834Z,99.90
2022-09-30T03:39:59.489Z,99.90
2022-09-30T03:42:31.775Z,99.90
2022-09-30T03:45:08.309Z,99.90
2022-09-30T03:47:43.116Z,99.90
2022-09-30T03:50:14.823Z,99.90
2022-09-30T03:52:45.005Z,99.90
2022-09-30T03:55:13.498Z,99.90
2022-09-30T03:57:41.761Z,99.90
2022-09-30T04:00:11.204Z,99.90
2022-09-30T04:02:39.585Z,99.90
2022-09-30T04:05:12.185Z,99.90
2022-09-30T04:07:40.321Z,99.90
2022-09-30T04:10:11.083Z,99.90
2022-09-30T04:12:39.293Z,99.90
2022-09-30T04:15:11.492Z,99.90
2022-09-30T04:17:39.793Z,99.90
2022-09-30T04:20:08.906Z,99.90
2022-09-30T04:22:38.196Z,99.90
2022-09-30T04:25:10.136Z,99.90
2022-09-30T04:27:38.674Z,99.90
2022-09-30T04:30:07.788Z,99.90
2022-09-30T04:32:36.309Z,99.90
2022-09-30T04:35:05.208Z,99.90
2022-09-30T04:37:33.943Z,99.90
2022-09-30T04:40:03.018Z,99.90
2022-09-30T04:42:33.502Z,99.90
2022-09-30T04:45:03.900Z,99.90
2022-09-30T04:47:32.932Z,99.90
2022-09-30T04:50:01.935Z,99.90
2022-09-30T04:52:31.498Z,99.90
2022-09-30T04:55:00.878Z,99.90
2022-09-30T04:57:30.853Z,99.90
2022-09-30T05:00:00.566Z,99.90
2022-09-30T05:02:28.817Z,99.90
2022-09-30T05:04:57.749Z,99.90
2022-09-30T05:07:27.566Z,99.90
2022-09-30T05:09:56.623Z,99.90
2022-09-30T05:12:27.179Z,99.90
2022-09-30T05:14:58.102Z,99.90
2022-09-30T05:17:36.073Z,99.90
2022-09-30T05:20:05.346Z,99.90
2022-09-30T05:22:34.534Z,99.90
2022-09-30T05:25:05.159Z,99.90
2022-09-30T05:27:34.145Z,99.90
2022-09-30T05:30:03.988Z,99.90
2022-09-30T05:32:35.554Z,99.90
2022-09-30T05:35:05.657Z,99.90
2022-09-30T05:37:37.636Z,99.90
2022-09-30T05:40:07.880Z,99.90
2022-09-30T05:42:37.048Z,99.90
2022-09-30T05:45:07.501Z,99.90
2022-09-30T05:47:37.452Z,99.90
2022-09-30T05:50:07.306Z,99.90
2022-09-30T05:53:14.769Z,99.90
2022-09-30T05:56:10.867Z,99.90
2022-09-30T05:58:42.288Z,99.90
2022-09-30T06:01:15.755Z,99.90
2022-09-30T06:03:48.903Z,99.90
2022-09-30T06:06:19.834Z,99.90
2022-09-30T06:08:50.585Z,99.90
2022-09-30T06:11:21.234Z,99.90
2022-09-30T06:13:50.301Z,99.90
2022-09-30T06:16:19.838Z,99.90
2022-09-30T06:18:50.083Z,99.90
2022-09-30T06:21:21.255Z,99.90
2022-09-30T06:23:51.657Z,99.90
2022-09-30T06:26:20.423Z,99.90
2022-09-30T06:28:49.108Z,99.90
2022-09-30T06:31:50.109Z,99.90
2022-09-30T06:34:21.370Z,99.90
2022-09-30T06:36:51.233Z,99.90
2022-09-30T06:39:19.670Z,99.90
2022-09-30T06:41:49.058Z,99.90
2022-09-30T06:44:25.780Z,99.90
2022-09-30T06:47:25.508Z,99.90
2022-09-30T06:49:59.022Z,99.90
2022-09-30T06:52:28.727Z,99.90
2022-09-30T06:54:57.964Z,99.90
2022-09-30T06:57:29.316Z,99.90
2022-09-30T06:59:58.275Z,99.90
2022-09-30T07:02:26.915Z,99.90
2022-09-30T07:04:57.615Z,99.90
2022-09-30T07:07:25.727Z,99.90
2022-09-30T07:09:59.472Z,99.90
2022-09-30T07:12:28.501Z,99.90
2022-09-30T07:15:00.612Z,99.90
2022-09-30T07:17:29.944Z,99.90
2022-09-30T07:20:00.271Z,99.90
2022-09-30T07:22:30.218Z,99.90
2022-09-30T07:25:03.573Z,99.90
2022-09-30T07:27:34.843Z,99.90
2022-09-30T07:30:10.185Z,99.90
2022-09-30T07:32:41.330Z,99.90
2022-09-30T07:35:11.463Z,99.90
2022-09-30T07:37:40.105Z,99.90
2022-09-30T07:40:10.188Z,99.90
2022-09-30T07:42:45.882Z,99.90
2022-09-30T07:45:16.111Z,99.90
2022-09-30T07:47:52.574Z,99.90
2022-09-30T07:50:23.516Z,99.90
2022-09-30T07:52:54.382Z,99.90
2022-09-30T07:55:23.325Z,99.90
2022-09-30T07:57:52.669Z,99.90
2022-09-30T08:00:41.723Z,99.90
2022-09-30T08:03:11.291Z,99.90
2022-09-30T08:05:45.525Z,99.90
2022-09-30T08:08:18.196Z,99.90
2022-09-30T08:10:48.467Z,99.90
2022-09-30T08:13:20.177Z,99.90
2022-09-30T08:15:50.710Z,99.90
2022-09-30T08:18:21.872Z,99.90
2022-09-30T08:20:53.341Z,99.90
2022-09-30T08:23:26.080Z,99.90
2022-09-30T08:26:03.359Z,99.90
2022-09-30T08:28:32.516Z,99.90
2022-09-30T08:31:10.222Z,99.90
2022-09-30T08:33:50.840Z,99.90
2022-09-30T08:36:23.500Z,99.90
2022-09-30T08:38:52.692Z,99.90
2022-09-30T08:41:42.621Z,99.90
2022-09-30T08:44:25.789Z,99.90
2022-09-30T08:47:01.745Z,99.90
2022-09-30T08:50:15.945Z,99.90
2022-09-30T08:52:51.614Z,99.90
2022-09-30T08:55:25.797Z,99.90
2022-09-30T08:57:56.998Z,99.90
2022-09-30T09:00:26.936Z,99.90
2022-09-30T09:03:01.161Z,99.90
2022-09-30T09:05:48.617Z,99.90
2022-09-30T09:08:30.128Z,99.90
2022-09-30T09:11:10.615Z,99.90
2022-09-30T09:13:51.901Z,99.90
2022-09-30T09:16:30.261Z,99.90
2022-09-30T09:19:08.963Z,99.90
2022-09-30T09:21:57.402Z,99.90
2022-09-30T09:24:45.470Z,99.90
2022-09-30T09:27:22.520Z,99.90
2022-09-30T09:29:59.958Z,99.90
2022-09-30T09:32:30.884Z,26.20
2022-09-30T09:35:02.843Z,30.10
2022-09-30T09:37:58.695Z,1.00
2022-09-30T09:40:48.270Z,39.80
2022-09-30T09:43:33.607Z,1.00
2022-09-30T09:46:11.343Z,1.00
2022-09-30T09:48:43.536Z,1.00
2022-09-30T09:51:24.990Z,1.00
2022-09-30T09:53:58.406Z,1.00
2022-09-30T09:56:35.226Z,1.00
2022-09-30T09:59:19.361Z,1.00
2022-09-30T10:01:50.599Z,1.00
2022-09-30T10:04:25.330Z,1.00
2022-09-30T10:07:00.325Z,1.00
2022-09-30T10:09:35.419Z,1.00
2022-09-30T10:12:33.522Z,1.00
2022-09-30T10:15:11.475Z,99.90
2022-09-30T10:17:41.638Z,1.00
2022-09-30T10:20:25.706Z,1.00
2022-09-30T10:23:03.739Z,1.00
2022-09-30T10:25:35.595Z,8.70
2022-09-30T10:28:29.130Z,1.00
2022-09-30T10:31:06.791Z,99.90
2022-09-30T10:33:42.563Z,1.00
2022-09-30T10:36:17.926Z,99.90
2022-09-30T10:39:12.368Z,99.90
2022-09-30T10:41:46.375Z,99.90
2022-09-30T10:44:25.982Z,1.00
2022-09-30T10:47:13.615Z,99.90
2022-09-30T10:49:48.487Z,99.90
2022-09-30T10:52:22.846Z,1.00
2022-09-30T10:54:54.122Z,1.00
2022-09-30T10:57:28.982Z,1.00
2022-09-30T11:00:04.764Z,1.00
2022-09-30T11:02:41.965Z,1.00
2022-09-30T11:05:23.183Z,1.00
2022-09-30T11:07:59.027Z,1.00
2022-09-30T11:10:44.632Z,1.00
2022-09-30T11:13:21.514Z,1.00
2022-09-30T11:16:00.583Z,1.00
2022-09-30T11:18:49.768Z,1.00
2022-09-30T11:21:23.569Z,1.00
2022-09-30T11:23:56.818Z,1.00
2022-09-30T11:26:42.173Z,1.00
2022-09-30T11:29:40.543Z,1.00
2022-09-30T11:32:32.575Z,1.00
2022-09-30T11:35:11.497Z,1.00
2022-09-30T11:38:15.040Z,1.00
2022-09-30T11:40:56.853Z,1.00
2022-09-30T11:43:45.937Z,1.00
2022-09-30T11:46:37.767Z,1.00
2022-09-30T11:49:37.308Z,1.00
2022-09-30T11:52:18.014Z,1.00
2022-09-30T11:55:11.745Z,1.00
2022-09-30T11:57:55.309Z,1.00
2022-09-30T12:00:28.394Z,1.00
2022-09-30T12:03:09.299Z,1.00
2022-09-30T12:05:49.488Z,1.00
2022-09-30T12:08:25.304Z,1.00
2022-09-30T12:11:01.360Z,1.00
2022-09-30T12:13:41.465Z,1.00
2022-09-30T12:16:30.668Z,1.00
2022-09-30T12:19:13.032Z,1.00
2022-09-30T12:21:54.072Z,1.00
2022-09-30T12:24:33.505Z,1.00
2022-09-30T12:27:03.604Z,1.00
2022-09-30T12:29:57.764Z,1.00
2022-09-30T12:33:06.699Z,1.00
2022-09-30T12:36:09.370Z,1.00
2022-09-30T12:38:56.472Z,1.00
2022-09-30T12:41:39.310Z,1.00
2022-09-30T12:45:02.239Z,1.00
2022-09-30T12:47:46.124Z,1.00
2022-09-30T12:50:22.955Z,1.00
2022-09-30T12:52:55.136Z,1.00
2022-09-30T12:55:38.817Z,1.00
2022-09-30T12:58:10.109Z,1.00
2022-09-30T13:00:53.804Z,1.00
2022-09-30T13:03:30.960Z,1.00
2022-09-30T13:06:07.337Z,1.00
2022-09-30T13:08:57.493Z,1.00
2022-09-30T13:11:43.323Z,1.00
2022-09-30T13:14:49.283Z,1.00
2022-09-30T13:17:37.285Z,1.00
2022-09-30T13:20:55.715Z,1.00
2022-09-30T13:23:44.096Z,1.00
2022-09-30T13:26:39.306Z,1.00
2022-09-30T13:29:44.913Z,1.00
2022-09-30T13:32:38.806Z,1.00
2022-09-30T13:35:33.206Z,1.00
2022-09-30T13:38:37.796Z,1.00
2022-09-30T13:41:20.305Z,1.00
2022-09-30T13:44:07.750Z,1.00
2022-09-30T13:46:42.312Z,1.00
2022-09-30T13:49:19.708Z,1.00
2022-09-30T13:51:49.904Z,1.00
2022-09-30T13:54:29.062Z,1.00
2022-09-30T13:57:05.116Z,1.00
2022-09-30T13:59:51.621Z,1.00
2022-09-30T14:02:48.512Z,99.90
2022-09-30T14:05:50.099Z,1.00
2022-09-30T14:08:50.914Z,1.00
2022-09-30T14:11:59.821Z,1.00
2022-09-30T14:15:02.624Z,1.00
2022-09-30T14:17:47.130Z,1.00
2022-09-30T14:20:33.372Z,1.00
2022-09-30T14:23:02.983Z,1.00
2022-09-30T14:25:40.334Z,1.00
2022-09-30T14:28:14.288Z,1.00
2022-09-30T14:31:06.028Z,1.00
2022-09-30T14:33:39.813Z,1.00
2022-09-30T14:36:32.571Z,1.00
2022-09-30T14:39:03.903Z,1.00
2022-09-30T14:41:41.533Z,1.00
2022-09-30T14:44:18.035Z,1.00
2022-09-30T14:46:51.476Z,1.00
2022-09-30T14:49:28.682Z,1.00
2022-09-30T14:51:58.525Z,1.00
2022-09-30T14:54:29.844Z,1.00
2022-09-30T14:57:07.058Z,1.00
2022-09-30T14:59:42.057Z,1.00
2022-09-30T15:02:18.721Z,1.00
2022-09-30T15:04:52.828Z,1.00
2022-09-30T15:07:26.147Z,1.00
2022-09-30T15:10:03.894Z,1.00
2022-09-30T15:12:38.271Z,1.00
2022-09-30T15:15:36.798Z,1.00
2022-09-30T15:18:28.878Z,1.00
2022-09-30T15:21:00.464Z,1.00
2022-09-30T15:23:32.800Z,1.00
2022-09-30T15:26:02.705Z,99.90
2022-09-30T15:28:39.236Z,99.90
2022-09-30T15:31:11.410Z,99.90
2022-09-30T15:33:40.536Z,99.90
2022-09-30T15:36:16.826Z,99.90
2022-09-30T15:38:51.437Z,99.90
2022-09-30T15:41:21.543Z,99.90
2022-09-30T15:44:00.810Z,99.90
2022-09-30T15:46:39.719Z,99.90
2022-09-30T15:49:37.184Z,99.90
2022-09-30T15:52:36.647Z,99.90
2022-09-30T15:55:43.661Z,99.90
2022-09-30T15:58:40.022Z,99.90
2022-09-30T16:01:23.655Z,1.00
2022-09-30T16:03:58.330Z,1.00
2022-09-30T16:06:35.610Z,1.00
2022-09-30T16:09:08.970Z,1.00
2022-09-30T16:11:54.430Z,1.00
2022-09-30T16:14:28.554Z,1.00
2022-09-30T16:17:05.830Z,1.00
2022-09-30T16:19:40.172Z,1.00
2022-09-30T16:22:37.685Z,1.00
2022-09-30T16:25:20.374Z,1.00
2022-09-30T16:27:55.934Z,1.00
2022-09-30T16:30:29.635Z,1.00
2022-09-30T16:33:06.208Z,1.00
2022-09-30T16:35:35.874Z,1.00
2022-09-30T16:38:13.810Z,1.00
2022-09-30T16:40:42.980Z,1.00
2022-09-30T16:43:13.998Z,1.00
2022-09-30T16:45:46.890Z,1.00
2022-09-30T16:48:22.165Z,1.00
2022-09-30T16:50:56.971Z,1.00
2022-09-30T16:53:27.848Z,1.00
2022-09-30T16:56:02.427Z,1.00
2022-09-30T16:58:32.790Z,1.00
2022-09-30T17:01:02.138Z,1.00
2022-09-30T17:03:35.372Z,1.40
2022-09-30T17:06:04.069Z,4.90
2022-09-30T17:08:35.804Z,16.80
2022-09-30T17:11:09.247Z,23.60
2022-09-30T17:13:38.384Z,23.70
2022-09-30T17:16:08.250Z,28.70
2022-09-30T17:18:42.913Z,29.20
2022-09-30T17:21:12.329Z,44.20
2022-09-30T17:23:45.205Z,58.80
2022-09-30T17:26:15.698Z,70.70
2022-09-30T17:28:49.130Z,88.20
2022-09-30T17:31:19.488Z,95.00
2022-09-30T17:33:51.435Z,99.90
2022-09-30T17:36:21.029Z,99.90
2022-09-30T17:38:55.361Z,99.90
2022-09-30T17:41:41.657Z,99.90
2022-09-30T17:44:11.632Z,99.90
2022-09-30T17:46:44.618Z,99.90
2022-09-30T17:49:20.701Z,99.90
2022-09-30T17:51:54.290Z,99.90
2022-09-30T17:54:23.864Z,99.90
2022-09-30T17:56:53.194Z,99.90
2022-09-30T17:59:22.081Z,99.90
2022-09-30T18:01:52.426Z,99.90
2022-09-30T18:04:23.484Z,99.90
2022-09-30T18:06:52.772Z,99.90
2022-09-30T18:09:23.091Z,99.90
2022-09-30T18:11:53.696Z,99.90
2022-09-30T18:14:22.981Z,99.90
2022-09-30T18:16:51.396Z,99.90
2022-09-30T18:19:21.280Z,99.90
2022-09-30T18:21:49.586Z,99.90
2022-09-30T18:24:45.248Z,99.90
2022-09-30T18:27:13.631Z,99.90
2022-09-30T18:29:42.320Z,99.90
2022-09-30T18:32:10.822Z,99.90
2022-09-30T18:34:42.195Z,99.90
2022-09-30T18:37:11.654Z,99.90
2022-09-30T18:39:41.245Z,99.90
2022-09-30T18:42:11.797Z,99.90
2022-09-30T18:44:42.258Z,99.90
2022-09-30T18:47:13.553Z,99.90
2022-09-30T18:49:43.975Z,99.90
2022-09-30T18:52:15.655Z,99.90
2022-09-30T18:54:44.559Z,99.90
2022-09-30T18:57:13.016Z,99.90
2022-09-30T18:59:48.651Z,99.90
2022-09-30T19:05:03.726Z,99.90
2022-09-30T19:07:35.170Z,99.90
2022-09-30T19:10:05.001Z,99.90
2022-09-30T19:12:34.143Z,99.90
2022-09-30T19:15:02.277Z,99.90
2022-09-30T19:17:33.187Z,99.90
2022-09-30T19:20:03.250Z,99.90
2022-09-30T19:22:32.478Z,99.90
2022-09-30T19:25:02.127Z,99.90
2022-09-30T19:27:30.512Z,99.90
2022-09-30T19:30:01.475Z,99.90
2022-09-30T19:32:34.689Z,99.90
2022-09-30T19:35:06.690Z,99.90
2022-09-30T19:37:35.681Z,99.90
2022-09-30T19:40:18.731Z,99.90
2022-09-30T19:42:49.324Z,99.90
2022-09-30T19:45:24.300Z,99.90
2022-09-30T19:47:54.340Z,99.90
2022-09-30T19:50:23.715Z,99.90
2022-09-30T19:52:57.402Z,99.90
2022-09-30T19:55:27.802Z,99.90
2022-09-30T19:57:56.399Z,99.90
2022-09-30T20:00:27.490Z,99.90
2022-09-30T20:02:56.241Z,99.90
2022-09-30T20:05:25.981Z,99.90
2022-09-30T20:07:55.404Z,99.90
2022-09-30T20:10:24.087Z,99.90
2022-09-30T20:12:56.865Z,99.90
2022-09-30T20:15:46.344Z,99.90
2022-09-30T20:18:15.403Z,99.90
2022-09-30T20:20:47.127Z,99.90
2022-09-30T20:23:16.422Z,99.90
2022-09-30T20:25:47.250Z,99.90
2022-09-30T20:28:17.033Z,99.90
2022-09-30T20:30:46.272Z,99.90
2022-09-30T20:33:17.476Z,99.90
2022-09-30T20:35:51.505Z,99.90
2022-09-30T20:38:24.981Z,99.90
2022-09-30T20:40:56.881Z,99.90
2022-09-30T20:43:28.330Z,99.90
2022-09-30T20:46:00.270Z,99.90
2022-09-30T20:48:33.480Z,99.90
2022-09-30T20:51:06.511Z,99.90
2022-09-30T20:53:39.659Z,99.90
2022-09-30T20:56:09.653Z,99.90
2022-09-30T20:58:39.275Z,99.90
2022-09-30T21:01:10.142Z,99.90
2022-09-30T21:03:40.314Z,99.90
2022-09-30T21:06:11.995Z,99.90
2022-09-30T21:08:42.979Z,99.90
2022-09-30T21:11:12.390Z,99.90
2022-09-30T21:13:44.086Z,99.90
2022-09-30T21:16:15.755Z,99.90
2022-09-30T21:18:45.376Z,99.90
2022-09-30T21:21:16.934Z,99.90
2022-09-30T21:23:45.164Z,99.90
2022-09-30T21:26:16.201Z,99.90
2022-09-30T21:28:49.716Z,99.90
2022-09-30T21:31:20.324Z,99.90
2022-09-30T21:33:52.020Z,99.90
2022-09-30T21:36:22.299Z,99.90
2022-09-30T21:38:51.290Z,99.90
2022-09-30T21:41:21.013Z,99.90
2022-09-30T21:43:53.383Z,99.90
2022-09-30T21:46:22.608Z,99.90
2022-09-30T21:48:53.650Z,99.90
2022-09-30T21:51:23.246Z,99.90
2022-09-30T21:53:51.640Z,99.90
2022-09-30T21:56:20.689Z,99.90
2022-09-30T21:58:50.092Z,99.90
2022-09-30T22:01:19.105Z,99.90
2022-09-30T22:03:47.463Z,99.90
2022-09-30T22:06:19.929Z,99.90
2022-09-30T22:08:49.420Z,99.90
2022-09-30T22:11:22.636Z,99.90
2022-09-30T22:13:55.198Z,99.90
2022-09-30T22:16:26.119Z,99.90
2022-09-30T22:18:58.827Z,99.90
2022-09-30T22:21:28.326Z,99.90
2022-09-30T22:23:58.291Z,99.90
2022-09-30T22:26:28.024Z,99.90
2022-09-30T22:28:58.592Z,99.90
2022-09-30T22:31:29.711Z,99.90
2022-09-30T22:34:19.645Z,99.90
2022-09-30T22:37:05.635Z,99.90
2022-09-30T22:39:36.349Z,99.90
2022-09-30T22:42:05.431Z,99.90
2022-09-30T22:44:36.092Z,99.90
2022-09-30T22:47:05.696Z,99.90
2022-09-30T22:49:34.789Z,99.90
2022-09-30T22:52:03.842Z,99.90
2022-09-30T22:54:32.353Z,99.90
2022-09-30T22:57:02.359Z,99.90
2022-09-30T22:59:31.272Z,99.90
2022-09-30T23:02:00.224Z,99.90
2022-09-30T23:04:29.257Z,99.90
2022-09-30T23:06:57.256Z,99.90
2022-09-30T23:09:26.277Z,99.90
2022-09-30T23:11:56.998Z,99.90
2022-09-30T23:14:26.762Z,99.90
2022-09-30T23:16:55.966Z,99.90
2022-09-30T23:19:25.670Z,99.90
2022-09-30T23:21:54.290Z,99.90
2022-09-30T23:24:22.908Z,99.90
2022-09-30T23:26:51.032Z,99.90
2022-09-30T23:29:19.386Z,99.90
2022-09-30T23:31:50.362Z,99.90
2022-09-30T23:34:19.036Z,99.90
2022-09-30T23:36:47.018Z,99.90
2022-09-30T23:39:18.695Z,99.90
2022-09-30T23:41:47.308Z,99.90
2022-09-30T23:44:18.101Z,99.90
2022-09-30T23:47:00.680Z,99.90
2022-09-30T23:49:35.466Z,99.90
2022-09-30T23:52:05.511Z,99.90
2022-09-30T23:54:35.100Z,99.90
2022-09-30T23:57:04.175Z,99.90
2022-09-30T23:59:33.242Z,99.90
